Time;durP1;ratioP1;P1;durP2;ratioP2;P2;SDS_P1;SDS_P2;PMS_P1;PMS_P2;Temp;Humidity;BMP_temperature;BMP_pressure;BME280_temperature;BME280_humidity;BME280_pressure;Samples;Min_cycle;Max_cycle;Signal;HPM_P1;HPM_P2
2022/07/24 00:03:22;;;;;;;1.25;1.15;;;;;;;19.33;87.97;101645.34;20955500;28;20193;-74
2022/07/24 00:13:29;;;;;;;1.30;1.08;;;;;;;19.32;87.91;101639.13;20965849;28;20414;-74
2022/07/24 00:23:31;;;;;;;1.10;1.00;;;;;;;19.07;87.70;101595.25;20965044;28;20052;-74
2022/07/24 00:33:33;;;;;;;1.13;0.93;;;;;;;19.19;87.81;101614.09;20964538;28;20055;-74
2022/07/24 00:43:35;;;;;;;1.85;1.20;;;;;;;19.15;87.77;101601.84;20960326;28;20135;-74
2022/07/24 00:53:36;;;;;;;1.67;1.20;;;;;;;19.28;87.87;101625.00;20959845;28;20123;-74
2022/07/24 01:03:38;;;;;;;1.15;1.05;;;;;;;19.28;87.78;101614.19;20949021;28;20497;-74
2022/07/24 01:13:40;;;;;;;1.20;1.10;;;;;;;19.08;87.66;101571.84;20961316;28;20081;-74
2022/07/24 01:23:41;;;;;;;1.25;1.15;;;;;;;19.10;87.83;101573.41;20960906;28;20041;-74
2022/07/24 01:33:43;;;;;;;1.25;1.10;;;;;;;19.25;87.62;101587.47;20958900;28;20055;-75
2022/07/24 01:43:44;;;;;;;2.03;1.15;;;;;;;19.27;87.51;101584.66;20957274;28;20048;-75
2022/07/24 01:53:46;;;;;;;1.17;1.08;;;;;;;19.17;87.58;101556.69;20958487;28;20778;-74
2022/07/24 02:03:48;;;;;;;1.00;1.00;;;;;;;19.26;87.66;101577.53;20941917;28;20040;-74
2022/07/24 02:13:49;;;;;;;1.38;1.20;;;;;;;19.22;87.44;101576.06;20959214;28;20135;-74
2022/07/24 02:23:51;;;;;;;1.23;1.10;;;;;;;19.10;87.69;101540.19;20965132;28;20048;-74
2022/07/24 02:33:52;;;;;;;1.20;1.10;;;;;;;19.24;87.38;101563.31;20973500;28;20094;-75
2022/07/24 02:43:54;;;;;;;1.20;1.10;;;;;;;19.24;87.51;101563.31;20971063;28;20067;-75
2022/07/24 02:53:56;;;;;;;1.40;1.30;;;;;;;19.23;87.38;101557.03;20972130;28;20132;-75
2022/07/24 03:03:57;;;;;;;1.20;1.10;;;;;;;19.17;87.18;101544.06;20961179;28;20048;-74
2022/07/24 03:13:59;;;;;;;1.48;1.38;;;;;;;19.21;87.09;101548.22;20970649;28;20058;-75
2022/07/24 03:24:01;;;;;;;1.27;1.17;;;;;;;19.20;87.18;101541.09;20969908;28;20139;-75
2022/07/24 03:34:02;;;;;;;1.50;1.38;;;;;;;19.21;87.07;101532.03;20966811;28;20084;-75
2022/07/24 03:44:04;;;;;;;1.50;1.40;;;;;;;19.20;86.89;101524.91;20967615;28;20127;-74
2022/07/24 03:54:06;;;;;;;1.60;1.50;;;;;;;19.17;86.85;101524.31;20960668;28;20045;-74
2022/07/24 04:04:07;;;;;;;1.50;1.40;;;;;;;19.19;86.70;101512.41;20957963;28;20469;-74
2022/07/24 04:14:09;;;;;;;1.42;1.33;;;;;;;19.20;86.90;101513.25;20965671;28;20526;-74
2022/07/24 04:24:11;;;;;;;1.55;1.45;;;;;;;19.20;86.69;101500.63;20963621;28;20040;-74
2022/07/24 04:34:13;;;;;;;1.52;1.42;;;;;;;19.18;86.68;101499.91;20962607;28;20098;-74
2022/07/24 04:44:15;;;;;;;1.70;1.60;;;;;;;19.18;86.67;101510.69;20963016;28;20048;-75
2022/07/24 04:54:17;;;;;;;1.70;1.60;;;;;;;18.87;86.54;101453.03;20953861;28;20383;-75
2022/07/24 05:04:19;;;;;;;1.52;1.35;;;;;;;19.18;86.63;101504.44;20962667;28;20055;-75
2022/07/24 05:14:20;;;;;;;2.10;1.55;;;;;;;19.18;86.79;101496.31;20883262;28;20053;-74
2022/07/24 05:24:24;;;;;;;1.38;1.27;;;;;;;19.18;86.63;101499.91;20860523;28;20613;-74
2022/07/24 05:34:26;;;;;;;2.05;1.50;;;;;;;19.18;86.77;101499.91;20864595;28;22003;-74
2022/07/24 05:44:28;;;;;;;1.98;1.50;;;;;;;19.16;86.82;101485.69;20852199;28;20053;-74
2022/07/24 05:54:29;;;;;;;1.60;1.50;;;;;;;19.13;86.88;101486.78;20849654;28;20072;-74
2022/07/24 06:04:31;;;;;;;2.47;1.70;;;;;;;19.17;86.88;101473.03;20869777;28;20045;-75
2022/07/24 06:14:32;;;;;;;2.38;1.80;;;;;;;19.18;86.99;101467.50;20870508;28;20430;-74
2022/07/24 06:24:34;;;;;;;2.00;1.42;;;;;;;19.19;87.21;101463.81;20864231;28;20045;-74
2022/07/24 06:34:36;;;;;;;1.70;1.60;;;;;;;19.18;87.23;101478.31;20863966;28;20041;-74
2022/07/24 06:44:38;;;;;;;2.85;2.00;;;;;;;19.19;87.49;101488.13;20828924;28;20401;-74
2022/07/24 06:54:41;;;;;;;2.20;2.00;;;;;;;19.20;87.61;101487.13;20807452;28;20092;-74
2022/07/24 07:04:43;;;;;;;2.85;2.22;;;;;;;19.21;87.80;101485.25;20806839;28;20463;-74
2022/07/24 07:14:44;;;;;;;4.10;2.65;;;;;;;19.20;88.06;101486.25;20782417;28;20068;-75
2022/07/24 07:24:46;;;;;;;3.17;2.47;;;;;;;19.18;88.11;101481.00;20838480;28;20421;-75
2022/07/24 07:34:48;;;;;;;2.35;2.15;;;;;;;19.27;88.24;101480.22;20784703;28;20061;-75
2022/07/24 07:44:49;;;;;;;2.50;2.30;;;;;;;19.36;88.56;101496.59;20773705;28;20053;-75
2022/07/24 07:54:52;;;;;;;3.47;2.53;;;;;;;19.43;88.53;101492.38;20780060;28;20491;-74
2022/07/24 08:04:53;;;;;;;3.08;2.70;;;;;;;19.49;88.75;101475.69;20776943;28;20049;-74
2022/07/24 08:14:55;;;;;;;3.25;2.50;;;;;;;19.53;88.46;101469.03;20819890;28;20052;-75
2022/07/24 08:24:57;;;;;;;3.28;2.50;;;;;;;19.57;88.33;101472.28;20866159;28;20049;-76
2022/07/24 08:34:58;;;;;;;3.55;2.55;;;;;;;19.59;88.42;101472.16;20866131;28;20529;-77
2022/07/24 08:45:00;;;;;;;3.13;2.75;;;;;;;19.59;88.26;101461.38;20877529;28;21590;-74
2022/07/24 08:55:08;;;;;;;13.82;3.20;;;;;;;19.56;88.50;101474.16;20942330;28;20387;-75
2022/07/24 09:05:09;;;;;;;3.13;2.60;;;;;;;19.56;88.77;101470.56;20930219;28;20049;-76
2022/07/24 09:15:20;;;;;;;2.72;2.53;;;;;;;19.28;88.68;101422.53;20891337;28;20069;-73
2022/07/24 09:25:27;;;;;;;2.92;2.40;;;;;;;19.58;88.74;101465.06;20857081;28;20488;-73
2022/07/24 09:35:43;;;;;;;2.58;2.30;;;;;;;19.56;88.66;101462.47;20851092;28;20038;-73
2022/07/24 09:46:10;;;;;;;2.90;2.55;;;;;;;19.54;88.91;101457.22;20941188;28;20052;-74
2022/07/24 09:56:14;;;;;;;2.63;2.42;;;;;;;19.53;88.58;101447.41;21012282;28;20044;-75
2022/07/24 10:06:18;;;;;;;2.35;2.15;;;;;;;19.42;88.82;101436.66;20937674;28;20056;-75
2022/07/24 10:16:28;;;;;;;3.13;2.20;;;;;;;19.48;88.93;101435.28;20948730;28;20093;-75
2022/07/24 10:26:37;;;;;;;2.00;1.90;;;;;;;19.50;89.01;101439.59;20942999;28;20127;-75
2022/07/24 10:36:45;;;;;;;3.42;2.63;;;;;;;19.49;89.04;101443.28;20957692;28;20036;-75
2022/07/24 10:46:58;;;;;;;2.30;2.10;;;;;;;19.49;89.24;101435.16;20922500;28;20044;-75
2022/07/24 10:56:59;;;;;;;2.38;2.15;;;;;;;19.49;89.08;101429.78;20936396;28;20044;-75
2022/07/24 11:07:12;;;;;;;3.15;2.35;;;;;;;19.50;88.93;101428.78;20935264;28;20047;-75
2022/07/24 11:17:43;;;;;;;2.25;2.05;;;;;;;19.50;88.98;101425.22;20916541;28;20444;-75
2022/07/24 11:27:51;;;;;;;2.22;2.03;;;;;;;19.37;89.07;101403.81;20926506;28;20139;-75
2022/07/24 11:37:52;;;;;;;1.80;1.70;;;;;;;19.51;89.09;101435.03;20920262;28;20094;-75
2022/07/24 11:47:54;;;;;;;2.67;2.05;;;;;;;19.50;89.31;101423.38;20913881;28;20394;-75
2022/07/24 11:57:56;;;;;;;2.45;2.25;;;;;;;19.50;89.06;101417.97;20925994;28;20409;-75
2022/07/24 12:08:26;;;;;;;2.30;2.10;;;;;;;19.49;89.00;101400.06;20922187;28;20378;-75
2022/07/24 12:18:28;;;;;;;2.08;1.88;;;;;;;19.50;88.87;101395.50;20927862;28;20183;-75
2022/07/24 12:28:36;;;;;;;2.00;1.80;;;;;;;19.50;88.78;101380.19;20936005;28;20102;-75
2022/07/24 12:38:40;;;;;;;2.47;2.28;;;;;;;19.51;88.82;101387.28;20924786;28;20078;-75
2022/07/24 12:48:56;;;;;;;2.33;2.00;;;;;;;19.51;88.85;101370.22;20931037;28;20396;-75
2022/07/24 12:59:04;;;;;;;1.98;1.85;;;;;;;19.50;88.95;101349.59;20919532;28;20052;-75
2022/07/24 13:09:08;;;;;;;2.42;2.08;;;;;;;19.50;88.80;101341.50;20903286;28;20425;-76
2022/07/24 13:19:10;;;;;;;2.65;2.05;;;;;;;19.49;88.91;101320.88;20889623;28;20045;-76
2022/07/24 13:29:12;;;;;;;2.22;1.98;;;;;;;19.49;88.84;101321.75;20905242;28;20047;-73
2022/07/24 13:39:15;;;;;;;2.25;2.05;;;;;;;19.49;88.64;101313.66;20916398;28;20059;-76
2022/07/24 13:49:17;;;;;;;2.00;1.80;;;;;;;19.50;88.64;101301.00;20908721;28;20241;-76
2022/07/24 13:59:19;;;;;;;1.80;1.70;;;;;;;19.49;88.84;101294.75;20892953;28;20053;-76
2022/07/24 14:09:21;;;;;;;2.25;2.00;;;;;;;19.50;88.81;101295.59;20887707;28;20048;-75
2022/07/24 14:19:23;;;;;;;2.50;2.30;;;;;;;19.50;89.05;101261.34;20902538;28;20063;-76
2022/07/24 14:29:25;;;;;;;2.47;2.28;;;;;;;19.50;89.21;101252.38;20908296;28;20055;-75
2022/07/24 14:39:28;;;;;;;2.42;2.22;;;;;;;19.49;89.46;101240.75;20879396;28;20064;-75
2022/07/24 14:49:30;;;;;;;2.55;2.35;;;;;;;19.50;89.56;101231.66;20902626;28;20045;-76
2022/07/24 14:59:32;;;;;;;2.50;2.30;;;;;;;19.50;89.41;101228.09;20892551;28;20110;-75
2022/07/24 15:09:33;;;;;;;2.30;2.10;;;;;;;19.50;89.41;101210.06;20897191;28;20060;-76
2022/07/24 15:19:35;;;;;;;2.17;1.98;;;;;;;19.50;89.63;101185.75;20895044;28;20072;-75
2022/07/24 15:29:37;;;;;;;2.30;2.10;;;;;;;19.46;89.62;101178.94;20887887;28;20053;-76
2022/07/24 15:39:38;;;;;;;2.47;2.28;;;;;;;19.51;89.59;101167.69;20904880;28;20056;-76
2022/07/24 15:49:40;;;;;;;2.13;1.92;;;;;;;19.51;89.74;101165.84;20880473;28;20089;-76
2022/07/24 15:59:41;;;;;;;3.15;2.60;;;;;;;19.51;89.89;101152.34;20893539;28;20061;-76
2022/07/24 16:09:43;;;;;;;2.97;2.67;;;;;;;19.52;90.39;101151.34;20894457;28;20133;-76
2022/07/24 16:19:45;;;;;;;5.10;2.47;;;;;;;19.35;90.32;101108.84;20898320;28;20040;-75
2022/07/24 16:29:47;;;;;;;3.60;2.42;;;;;;;19.53;90.57;101128.75;20893517;28;20147;-76
2022/07/24 16:39:48;;;;;;;2.92;2.55;;;;;;;19.53;90.79;101101.75;20917373;28;20487;-76
2022/07/24 16:49:50;;;;;;;4.13;3.00;;;;;;;19.54;92.12;101095.34;20890568;28;20055;-73
2022/07/24 16:59:51;;;;;;;5.72;3.10;;;;;;;19.58;93.22;101086.97;20893415;28;20080;-73
2022/07/24 17:09:53;;;;;;;5.63;2.95;;;;;;;19.58;93.60;101082.41;20882412;28;20492;-75
2022/07/24 17:19:54;;;;;;;4.15;2.70;;;;;;;19.54;93.88;101068.34;20915621;28;20056;-74
2022/07/24 17:29:56;;;;;;;6.50;2.50;;;;;;;19.60;94.29;101076.88;20933740;28;20485;-74
2022/07/24 17:39:58;;;;;;;3.90;2.40;;;;;;;19.60;94.48;101071.47;20916010;28;20135;-76
2022/07/24 17:49:59;;;;;;;5.63;2.95;;;;;;;19.59;94.72;101075.16;20923291;28;20056;-77
2022/07/24 18:00:02;;;;;;;4.72;2.67;;;;;;;19.56;94.69;101069.06;20964968;28;20493;-76
2022/07/24 18:10:13;;;;;;;4.78;2.55;;;;;;;19.39;94.71;101038.22;20971375;28;20094;-76
2022/07/24 18:20:15;;;;;;;5.50;2.90;;;;;;;19.55;95.40;101059.25;20970000;28;20048;-76
2022/07/24 18:30:17;;;;;;;5.07;3.03;;;;;;;19.47;95.33;101039.38;20969249;28;20036;-76
2022/07/24 18:40:18;;;;;;;4.65;2.70;;;;;;;19.55;95.73;101047.59;21014397;28;20257;-76
2022/07/24 18:50:20;;;;;;;5.55;2.72;;;;;;;19.49;95.73;101031.97;21051178;28;20052;-76
2022/07/24 19:00:22;;;;;;;3.20;2.30;;;;;;;19.31;96.23;101007.53;21049430;28;20048;-76
2022/07/24 19:10:24;;;;;;;3.72;2.70;;;;;;;19.47;96.28;101023.16;21048166;28;20126;-76
2022/07/24 19:20:25;;;;;;;2.40;2.15;;;;;;;19.52;96.39;101021.75;21030467;28;20110;-77
2022/07/24 19:30:27;;;;;;;4.25;2.28;;;;;;;19.37;96.72;101006.97;21048117;28;20442;-76
2022/07/24 19:40:29;;;;;;;3.30;2.35;;;;;;;19.52;96.87;101020.88;21033695;28;20101;-77
2022/07/24 19:50:31;;;;;;;3.92;2.50;;;;;;;19.52;97.08;101029.84;21046350;28;20125;-76
2022/07/24 20:00:52;;;;;;;3.30;2.22;;;;;;;19.52;97.19;101020.88;21045065;28;20102;-76
2022/07/24 20:10:55;;;;;;;3.92;2.50;;;;;;;19.52;97.49;101010.06;21043258;28;20048;-77
2022/07/24 20:20:56;;;;;;;4.20;2.20;;;;;;;19.34;97.56;100982.97;21044545;28;20052;-76
2022/07/24 20:31:01;;;;;;;3.23;2.50;;;;;;;19.02;97.72;100943.66;21034447;28;20058;-76
2022/07/24 20:41:03;;;;;;;2.70;2.22;;;;;;;19.39;97.98;100978.84;21027726;28;20048;-77
2022/07/24 20:51:05;;;;;;;2.97;2.05;;;;;;;19.44;98.37;100974.84;21042583;28;20446;-76
2022/07/24 21:01:06;;;;;;;3.38;2.35;;;;;;;19.41;98.29;100965.19;21040715;28;20094;-77
2022/07/24 21:11:08;;;;;;;4.38;2.05;;;;;;;19.49;98.70;100965.34;21042559;28;20044;-76
2022/07/24 21:21:10;;;;;;;2.58;1.88;;;;;;;19.49;98.86;100950.97;21041736;28;20090;-76
2022/07/24 21:31:12;;;;;;;2.70;2.00;;;;;;;19.49;99.07;100942.88;21013982;28;20041;-76
2022/07/24 21:41:14;;;;;;;2.58;2.03;;;;;;;19.44;99.20;100932.50;21040981;28;20048;-77
2022/07/24 21:51:15;;;;;;;2.83;2.15;;;;;;;19.48;99.16;100928.53;21039932;28;20047;-77
2022/07/24 22:01:18;;;;;;;2.28;2.08;;;;;;;19.47;99.35;100921.44;21053194;28;20052;-76
2022/07/24 22:11:29;;;;;;;2.33;2.00;;;;;;;19.38;99.48;100895.28;21055618;28;20458;-76
2022/07/24 22:21:31;;;;;;;2.20;1.75;;;;;;;19.27;99.55;100872.88;21053684;28;20052;-76
2022/07/24 22:31:32;;;;;;;2.50;1.95;;;;;;;19.47;99.57;100893.56;21035334;28;20036;-77
2022/07/24 22:41:34;;;;;;;2.58;2.05;;;;;;;19.46;99.67;100906.22;21050443;28;21107;-76
2022/07/24 22:51:36;;;;;;;2.58;1.88;;;;;;;19.46;99.70;100897.25;21050424;28;20052;-76
2022/07/24 23:01:42;;;;;;;2.70;1.83;;;;;;;19.18;99.71;100843.19;21049560;28;20074;-77
2022/07/24 23:11:44;;;;;;;2.00;1.80;;;;;;;19.45;99.89;100885.63;21031342;28;20070;-76
2022/07/24 23:21:46;;;;;;;2.15;1.65;;;;;;;19.47;99.73;100874.66;21049932;28;20127;-77
2022/07/24 23:31:47;;;;;;;2.35;1.80;;;;;;;19.46;99.83;100859.47;21023994;28;20500;-77
2022/07/24 23:41:49;;;;;;;2.10;1.83;;;;;;;19.45;99.84;100837.03;21047262;28;20047;-76
2022/07/24 23:51:50;;;;;;;2.47;1.90;;;;;;;19.46;99.69;100832.47;21046404;28;20056;-76
